Madison Heights, VA (24572)

04:19 AM EDT del 23 Marzo 2017 (GMT -0400)
Concord Turnpike | | Change Station

Alt. 543 ft 37.40 °N, 79.11 °W | Updated 1 minute ago

Parzialmente nuvoloso
Parzialmente nuvoloso
30.4 °F
Sembra 27 °F
N
3.5
Vento Variabile Vento da Sud
Gusts 4.3 mph

Oggi
Massima -- | Minima -- °F
--% Possibilità di precip.
Ieri
Massima -- | Minima -- °F
Precip. -- in
Pressione 30.51 in
Visibilità 10.0 miglia
Nuvole Sereno
Raffreddamento del vento 27 °F
Punto di rugiada 16 °F
Umidità 54%
Piovosità 0.00 in
Spessore del manto nevoso Non disponibile.
7:15 AM 7:31 PM
Luna calante, 25% visible
METAR KLYH 230754Z AUTO 06003KT 10SM CLR M01/M11 A3049 RMK AO2 SLP330 T10111106
Pressione 30.51 in
Visibilità 10.0 miglia
Nuvole Sereno
Raffreddamento del vento 27 °F
Punto di rugiada 16 °F
Umidità 54%
Piovosità 0.00 in
Spessore del manto nevoso Non disponibile.
7:15 AM 7:31 PM
Luna calante, 25% visible
METAR KLYH 230754Z AUTO 06003KT 10SM CLR M01/M11 A3049 RMK AO2 SLP330 T10111106

Get Severe Weather Alerts

Thanks for signing up!

Be on the lookout for a verification email in your inbox.

You'll start receiving the daily forecast at 8 AM.

×

10-Day Weather Forecast

Almanac

Astronomia

Mar. 23, 2017 Alba Tramonto
Ora attuale
Crepuscolo civile
Crepuscolo nautico
Crepuscolo astronomico
Luna
Estensione della luce visibile
Lunghezza del giorno
Tomorrow will be .
, % of the Moon is Illuminated

Gli estremi di oggi

State Highs State Lows

Community

WunderPhotos

Upload Photos

1,962,540 foto caricate!

WunderBlog® & News

Nearby

Qualità dell'aria

  Qualità dell'aria Indice AQ Inquinante
Not available.

Profondità neve

Stazione Profondità Altitudine

Attività sismica

Città  Distanza Mag. Data & Ora
Minimo Magnitudo Mostrato è 2.5.

Attività sismica

Città  Distanza Mag. Data & Ora
Minimo Magnitudo Mostrato è 2.5.

Temperature delle acque costiere

Località Temperatura

Stations

Stazioni meteo nelle vicinanze

Ubicazione della stazione Temp. Raffreddamento del vento Punto di rugiada Umidità Vento Precip. Alt. Aggiornato Tipo
                   

Watches & Warnings

There are currently no watches in effect.